createdAt,value
2022-08-07T00:01:00.032Z,22.67
2022-08-07T00:04:16.136Z,22.60
2022-08-07T00:07:18.925Z,22.57
2022-08-07T00:10:27.095Z,22.52
2022-08-07T00:13:33.479Z,22.58
2022-08-07T00:16:43.435Z,22.51
2022-08-07T00:20:02.926Z,22.52
2022-08-07T00:23:09.191Z,22.50
2022-08-07T00:26:48.627Z,22.42
2022-08-07T00:29:37.171Z,22.47
2022-08-07T00:32:40.011Z,22.44
2022-08-07T00:35:46.513Z,22.47
2022-08-07T00:38:52.222Z,22.46
2022-08-07T00:42:01.962Z,22.40
2022-08-07T00:45:08.887Z,22.38
2022-08-07T00:48:19.554Z,22.39
2022-08-07T00:51:57.127Z,22.42
2022-08-07T00:54:54.951Z,22.38
2022-08-07T00:57:57.752Z,22.33
2022-08-07T01:01:00.613Z,22.35
2022-08-07T01:04:08.283Z,22.37
2022-08-07T01:07:12.668Z,22.38
2022-08-07T01:10:17.146Z,22.41
2022-08-07T01:13:21.995Z,22.41
2022-08-07T01:16:29.994Z,22.39
2022-08-07T01:19:34.702Z,22.42
2022-08-07T01:22:47.045Z,22.37
2022-08-07T01:26:04.716Z,22.39
2022-08-07T01:29:07.557Z,22.30
2022-08-07T01:32:12.503Z,22.29
2022-08-07T01:35:17.288Z,22.29
2022-08-07T01:38:25.003Z,22.36
2022-08-07T01:41:30.362Z,22.40
2022-08-07T01:44:36.149Z,22.31
2022-08-07T01:48:19.519Z,22.39
2022-08-07T01:51:24.418Z,22.33
2022-08-07T01:54:36.819Z,22.29
2022-08-07T01:58:01.340Z,22.39
2022-08-07T02:01:59.381Z,22.33
2022-08-07T02:04:55.945Z,22.36
2022-08-07T02:08:03.590Z,22.31
2022-08-07T02:11:10.485Z,22.30
2022-08-07T02:14:40.819Z,22.27
2022-08-07T02:17:49.213Z,22.28
2022-08-07T02:20:57.367Z,22.21
2022-08-07T02:24:01.567Z,22.35
2022-08-07T02:27:05.410Z,22.21
2022-08-07T02:30:10.174Z,22.16
2022-08-07T02:33:14.274Z,22.13
2022-08-07T02:36:28.599Z,22.23
2022-08-07T02:39:43.368Z,22.18
2022-08-07T02:43:08.066Z,22.16
2022-08-07T02:46:11.688Z,22.21
2022-08-07T02:49:28.652Z,22.18
2022-08-07T02:53:06.107Z,22.22
2022-08-07T02:56:21.276Z,22.16
2022-08-07T02:59:27.567Z,22.23
2022-08-07T03:02:31.954Z,22.23
2022-08-07T03:05:37.807Z,22.22
2022-08-07T03:08:41.725Z,22.23
2022-08-07T03:11:52.684Z,22.21
2022-08-07T03:15:02.454Z,22.13
2022-08-07T03:18:12.017Z,22.27
2022-08-07T03:21:24.499Z,22.20
2022-08-07T03:24:28.323Z,22.22
2022-08-07T03:27:59.574Z,22.17
2022-08-07T03:31:15.783Z,22.22
2022-08-07T03:34:22.200Z,22.18
2022-08-07T03:37:27.636Z,22.06
2022-08-07T03:40:36.153Z,21.96
2022-08-07T03:43:39.906Z,21.95
2022-08-07T03:47:13.911Z,21.98
2022-08-07T03:50:23.447Z,21.84
2022-08-07T03:53:30.251Z,21.65
2022-08-07T03:57:03.909Z,21.73
2022-08-07T04:00:12.057Z,21.70
2022-08-07T04:03:18.954Z,21.76
2022-08-07T04:06:37.722Z,21.70
2022-08-07T04:09:50.167Z,21.70
2022-08-07T04:12:54.655Z,21.72
2022-08-07T04:15:58.685Z,21.63
2022-08-07T04:19:14.713Z,21.67
2022-08-07T04:22:22.862Z,21.65
2022-08-07T04:25:29.303Z,21.65
2022-08-07T04:28:33.159Z,21.67
2022-08-07T04:32:09.726Z,21.68
2022-08-07T04:35:05.737Z,21.64
2022-08-07T04:38:11.465Z,21.74
2022-08-07T04:41:19.148Z,21.67
2022-08-07T04:44:24.537Z,21.53
2022-08-07T04:48:03.875Z,21.63
2022-08-07T04:51:27.065Z,21.64
2022-08-07T04:55:14.933Z,21.74
2022-08-07T05:02:43.977Z,21.83
2022-08-07T05:06:16.304Z,21.92
2022-08-07T05:09:46.251Z,21.89
2022-08-07T05:12:58.371Z,21.86
2022-08-07T05:16:06.771Z,21.80
2022-08-07T05:19:15.756Z,21.95
2022-08-07T05:22:26.929Z,22.07
2022-08-07T05:25:36.631Z,22.13
2022-08-07T05:28:58.040Z,22.10
2022-08-07T05:32:02.005Z,22.20
2022-08-07T05:35:07.782Z,22.32
2022-08-07T05:38:11.272Z,22.41
2022-08-07T05:41:16.998Z,22.46
2022-08-07T05:44:29.445Z,22.55
2022-08-07T05:47:38.226Z,22.67
2022-08-07T05:51:01.201Z,22.75
2022-08-07T05:54:11.926Z,22.73
2022-08-07T05:57:30.374Z,22.67
2022-08-07T06:00:38.347Z,22.67
2022-08-07T06:03:53.762Z,22.70
2022-08-07T06:07:05.968Z,22.83
2022-08-07T06:10:11.242Z,22.96
2022-08-07T06:13:18.572Z,22.99
2022-08-07T06:16:24.252Z,23.06
2022-08-07T06:19:51.844Z,23.18
2022-08-07T06:23:24.616Z,23.15
2022-08-07T06:26:20.671Z,23.04
2022-08-07T06:29:28.144Z,23.01
2022-08-07T06:32:32.671Z,23.13
2022-08-07T06:35:45.662Z,23.20
2022-08-07T06:38:58.703Z,23.23
2022-08-07T06:42:43.792Z,23.18
2022-08-07T06:45:50.012Z,23.16
2022-08-07T06:48:53.045Z,23.27
2022-08-07T06:52:02.891Z,23.27
2022-08-07T06:55:33.048Z,23.28
2022-08-07T06:58:39.798Z,23.31
2022-08-07T07:02:03.274Z,23.41
2022-08-07T07:05:06.426Z,23.48
2022-08-07T07:08:12.459Z,23.56
2022-08-07T07:12:07.747Z,23.62
2022-08-07T07:15:09.068Z,23.72
2022-08-07T07:18:47.090Z,23.66
2022-08-07T07:22:05.410Z,23.80
2022-08-07T07:26:32.094Z,23.79
2022-08-07T07:29:38.609Z,23.90
2022-08-07T07:32:08.721Z,23.90
2022-08-07T07:35:12.389Z,23.94
2022-08-07T07:38:15.827Z,23.97
2022-08-07T07:41:22.079Z,24.01
2022-08-07T07:44:34.139Z,23.87
2022-08-07T07:47:52.158Z,23.89
2022-08-07T07:50:56.062Z,23.99
2022-08-07T07:53:59.840Z,23.90
2022-08-07T07:57:05.558Z,24.03
2022-08-07T08:00:09.412Z,23.97
2022-08-07T08:03:16.747Z,23.74
2022-08-07T08:06:48.139Z,23.84
2022-08-07T08:10:05.334Z,23.98
2022-08-07T08:13:10.664Z,23.97
2022-08-07T08:16:20.201Z,23.99
2022-08-07T08:20:18.886Z,24.00
2022-08-07T08:23:14.444Z,24.15
2022-08-07T08:26:36.946Z,24.18
2022-08-07T08:29:55.877Z,24.24
2022-08-07T08:33:01.557Z,24.47
2022-08-07T08:36:05.715Z,24.55
2022-08-07T08:39:10.711Z,24.57
2022-08-07T08:42:25.865Z,24.72
2022-08-07T08:45:58.312Z,25.09
2022-08-07T08:49:33.588Z,25.34
2022-08-07T08:52:54.415Z,25.63
2022-08-07T08:56:01.315Z,25.67
2022-08-07T08:59:16.674Z,25.96
2022-08-07T09:02:37.806Z,26.02
2022-08-07T09:05:52.210Z,25.90
2022-08-07T09:09:21.137Z,25.93
2022-08-07T09:12:41.815Z,26.02
2022-08-07T09:16:23.614Z,25.94
2022-08-07T09:19:56.630Z,26.04
2022-08-07T09:24:33.579Z,26.10
2022-08-07T09:26:47.750Z,26.20
2022-08-07T09:30:08.435Z,26.19
2022-08-07T09:33:41.090Z,26.40
2022-08-07T09:37:03.814Z,26.53
2022-08-07T09:40:12.715Z,26.58
2022-08-07T09:43:40.302Z,26.72
2022-08-07T09:47:51.624Z,26.83
2022-08-07T09:51:01.688Z,26.96
2022-08-07T09:54:07.186Z,27.06
2022-08-07T09:57:52.560Z,26.89
2022-08-07T10:01:51.302Z,27.29
2022-08-07T10:05:18.092Z,27.56
2022-08-07T10:09:01.739Z,27.73
2022-08-07T10:12:21.934Z,28.14
2022-08-07T10:15:47.815Z,28.45
2022-08-07T10:19:11.552Z,28.58
2022-08-07T10:22:45.307Z,28.82
2022-08-07T10:26:07.359Z,28.62
2022-08-07T10:29:20.302Z,28.79
2022-08-07T10:32:51.480Z,29.02
2022-08-07T10:36:13.230Z,29.20
2022-08-07T10:39:41.592Z,29.39
2022-08-07T10:43:34.365Z,29.72
2022-08-07T10:47:11.735Z,30.19
2022-08-07T10:50:50.317Z,30.17
2022-08-07T10:54:18.189Z,29.92
2022-08-07T10:57:43.810Z,30.33
2022-08-07T11:01:35.674Z,30.60
2022-08-07T11:05:50.970Z,30.77
2022-08-07T11:09:03.905Z,31.00
2022-08-07T11:12:35.299Z,31.02
2022-08-07T11:15:40.048Z,31.29
2022-08-07T11:18:51.030Z,31.34
2022-08-07T11:22:03.719Z,31.26
2022-08-07T11:25:23.736Z,30.84
2022-08-07T11:28:31.272Z,30.73
2022-08-07T11:31:54.212Z,30.91
2022-08-07T11:34:59.260Z,30.46
2022-08-07T11:38:17.392Z,30.69
2022-08-07T11:42:00.350Z,30.24
2022-08-07T11:44:57.826Z,30.32
2022-08-07T11:48:29.353Z,30.54
2022-08-07T11:51:50.534Z,30.53
2022-08-07T11:55:12.912Z,30.58
2022-08-07T11:58:33.598Z,30.64
2022-08-07T12:02:00.835Z,30.77
2022-08-07T12:05:41.241Z,30.31
2022-08-07T12:08:53.983Z,30.44
2022-08-07T12:12:29.114Z,30.45
2022-08-07T12:15:57.927Z,30.64
2022-08-07T12:19:05.113Z,30.79
2022-08-07T12:22:37.239Z,31.10
2022-08-07T12:26:22.709Z,31.33
2022-08-07T12:29:37.686Z,31.10
2022-08-07T12:32:45.725Z,31.16
2022-08-07T12:35:57.787Z,31.34
2022-08-07T12:39:09.287Z,31.29
2022-08-07T12:42:32.128Z,31.45
2022-08-07T12:45:58.796Z,31.62
2022-08-07T12:49:39.637Z,31.84
2022-08-07T12:52:52.913Z,31.70
2022-08-07T12:56:04.105Z,31.13
2022-08-07T12:59:20.820Z,31.06
2022-08-07T13:02:33.267Z,31.14
2022-08-07T13:06:04.790Z,30.91
2022-08-07T13:10:19.925Z,31.10
2022-08-07T13:13:47.995Z,30.95
2022-08-07T13:17:06.509Z,31.30
2022-08-07T13:20:21.700Z,31.30
2022-08-07T13:24:04.276Z,31.06
2022-08-07T13:27:20.721Z,31.36
2022-08-07T13:30:39.624Z,31.65
2022-08-07T13:34:30.629Z,31.51
2022-08-07T13:37:25.652Z,31.50
2022-08-07T13:40:35.588Z,31.42
2022-08-07T13:43:52.385Z,31.57
2022-08-07T13:46:59.526Z,31.34
2022-08-07T13:50:35.197Z,31.40
2022-08-07T13:53:35.989Z,31.69
2022-08-07T13:57:02.711Z,31.39
2022-08-07T14:00:26.159Z,31.52
2022-08-07T14:04:06.848Z,31.67
2022-08-07T14:06:54.672Z,31.67
2022-08-07T14:10:02.957Z,31.88
2022-08-07T14:13:33.191Z,31.64
2022-08-07T14:16:44.959Z,31.72
2022-08-07T14:20:42.554Z,31.89
2022-08-07T14:24:00.826Z,32.06
2022-08-07T14:27:00.912Z,32.11
2022-08-07T14:33:47.657Z,32.03
2022-08-07T14:36:56.391Z,32.03
2022-08-07T14:40:18.278Z,31.55
2022-08-07T14:43:59.336Z,31.74
2022-08-07T14:50:18.620Z,31.80
2022-08-07T14:54:03.467Z,31.84
2022-08-07T14:56:48.483Z,31.78
2022-08-07T15:00:05.262Z,31.62
2022-08-07T15:03:16.423Z,31.67
2022-08-07T15:06:27.941Z,31.46
2022-08-07T15:12:58.816Z,31.71
2022-08-07T15:16:11.139Z,31.79
2022-08-07T15:19:17.885Z,31.80
2022-08-07T15:22:29.423Z,31.46
2022-08-07T15:25:37.628Z,31.36
2022-08-07T15:28:51.701Z,31.44
2022-08-07T15:32:02.796Z,31.42
2022-08-07T15:35:14.582Z,31.42
2022-08-07T15:38:30.268Z,31.38
2022-08-07T15:42:45.602Z,31.38
2022-08-07T15:45:58.194Z,31.18
2022-08-07T15:52:30.252Z,31.06
2022-08-07T15:55:53.566Z,31.10
2022-08-07T15:59:00.034Z,30.96
2022-08-07T16:02:04.701Z,30.72
2022-08-07T16:05:15.508Z,30.75
2022-08-07T16:08:32.379Z,30.50
2022-08-07T16:11:57.739Z,30.30
2022-08-07T16:15:54.412Z,30.23
2022-08-07T16:19:09.507Z,30.10
2022-08-07T16:23:05.533Z,30.08
2022-08-07T16:26:30.856Z,29.83
2022-08-07T16:30:11.187Z,29.82
2022-08-07T16:34:02.437Z,29.76
2022-08-07T16:37:02.749Z,29.74
2022-08-07T16:41:02.306Z,29.61
2022-08-07T16:45:04.144Z,29.55
2022-08-07T16:48:07.800Z,29.50
2022-08-07T16:52:35.374Z,29.46
2022-08-07T16:56:05.379Z,29.43
2022-08-07T16:59:17.806Z,29.26
2022-08-07T17:02:51.477Z,29.27
2022-08-07T17:06:29.937Z,29.15
2022-08-07T17:10:06.160Z,29.14
2022-08-07T17:13:15.906Z,28.96
2022-08-07T17:16:22.109Z,28.95
2022-08-07T17:20:01.957Z,29.06
2022-08-07T17:23:31.974Z,29.02
2022-08-07T17:27:03.565Z,28.90
2022-08-07T17:30:14.355Z,28.91
2022-08-07T17:34:09.101Z,28.81
2022-08-07T17:36:59.782Z,28.80
2022-08-07T17:40:30.417Z,28.75
2022-08-07T17:44:01.328Z,28.64
2022-08-07T17:47:16.604Z,28.56
2022-08-07T17:50:46.864Z,28.68
2022-08-07T17:54:00.690Z,28.64
2022-08-07T17:57:18.670Z,28.63
2022-08-07T18:00:32.755Z,28.60
2022-08-07T18:04:04.403Z,28.48
2022-08-07T18:07:20.337Z,28.46
2022-08-07T18:11:53.603Z,28.49
2022-08-07T18:14:28.017Z,28.36
2022-08-07T18:18:33.094Z,28.19
2022-08-07T18:21:38.167Z,28.24
2022-08-07T18:24:37.774Z,28.22
2022-08-07T18:28:15.253Z,28.14
2022-08-07T18:31:59.816Z,28.14
2022-08-07T18:35:10.502Z,28.08
2022-08-07T18:38:54.851Z,27.96
2022-08-07T18:42:16.602Z,27.88
2022-08-07T18:45:40.030Z,27.89
2022-08-07T18:50:19.686Z,27.77
2022-08-07T18:52:53.939Z,27.65
2022-08-07T18:56:31.634Z,27.60
2022-08-07T18:59:57.188Z,27.47
2022-08-07T19:03:11.682Z,27.46
2022-08-07T19:06:17.689Z,27.29
2022-08-07T19:09:57.190Z,27.20
2022-08-07T19:13:21.864Z,27.06
2022-08-07T19:17:00.689Z,26.97
2022-08-07T19:20:01.930Z,26.91
2022-08-07T19:23:18.345Z,26.84
2022-08-07T19:26:29.109Z,26.84
2022-08-07T19:31:00.549Z,26.66
2022-08-07T19:33:15.350Z,26.55
2022-08-07T19:36:28.014Z,26.42
2022-08-07T19:39:56.459Z,26.35
2022-08-07T19:42:56.676Z,26.28
2022-08-07T19:46:07.992Z,26.27
2022-08-07T19:49:17.212Z,25.94
2022-08-07T19:52:22.630Z,25.82
2022-08-07T19:55:25.685Z,25.74
2022-08-07T19:58:53.114Z,25.69
2022-08-07T20:01:58.124Z,25.58
2022-08-07T20:05:08.016Z,25.49
2022-08-07T20:08:14.590Z,25.30
2022-08-07T20:11:23.258Z,25.26
2022-08-07T20:14:54.011Z,25.19
2022-08-07T20:18:06.032Z,25.11
2022-08-07T20:21:22.329Z,25.04
2022-08-07T20:24:29.883Z,24.94
2022-08-07T20:27:47.539Z,24.88
2022-08-07T20:30:51.450Z,24.75
2022-08-07T20:34:00.905Z,24.58
2022-08-07T20:37:05.814Z,24.61
2022-08-07T20:40:32.367Z,24.54
2022-08-07T20:43:34.120Z,24.52
2022-08-07T20:46:44.150Z,24.51
2022-08-07T20:50:00.040Z,24.37
2022-08-07T20:53:05.744Z,24.37
2022-08-07T20:56:10.263Z,24.28
2022-08-07T20:59:27.285Z,24.19
2022-08-07T21:03:03.687Z,24.17
2022-08-07T21:06:21.637Z,24.12
2022-08-07T21:09:51.699Z,24.11
2022-08-07T21:12:57.950Z,23.94
2022-08-07T21:16:02.635Z,23.98
2022-08-07T21:19:09.258Z,23.90
2022-08-07T21:22:19.521Z,23.98
2022-08-07T21:25:38.889Z,24.04
2022-08-07T21:29:18.273Z,23.92
2022-08-07T21:32:46.989Z,23.77
2022-08-07T21:36:11.930Z,23.64
2022-08-07T21:39:46.302Z,23.52
2022-08-07T21:43:05.563Z,23.47
2022-08-07T21:46:24.711Z,23.38
2022-08-07T21:50:02.852Z,23.32
2022-08-07T21:53:17.358Z,23.27
2022-08-07T21:56:49.128Z,23.26
2022-08-07T22:00:04.546Z,23.25
2022-08-07T22:03:18.747Z,23.08
2022-08-07T22:06:45.301Z,22.95
2022-08-07T22:09:57.226Z,22.93
2022-08-07T22:13:09.004Z,22.86
2022-08-07T22:16:42.255Z,22.88
2022-08-07T22:19:45.997Z,22.86
2022-08-07T22:23:17.830Z,22.75
2022-08-07T22:26:28.623Z,22.75
2022-08-07T22:29:48.319Z,22.63
2022-08-07T22:33:05.403Z,22.60
2022-08-07T22:36:19.977Z,22.49
2022-08-07T22:39:53.533Z,22.38
2022-08-07T22:43:07.767Z,22.23
2022-08-07T22:47:01.967Z,22.14
2022-08-07T22:50:29.112Z,22.21
2022-08-07T22:54:09.429Z,22.07
2022-08-07T22:57:37.366Z,21.90
2022-08-07T23:00:53.206Z,21.86
2022-08-07T23:04:16.248Z,21.84
2022-08-07T23:07:40.312Z,21.86
2022-08-07T23:11:08.590Z,21.79
2022-08-07T23:14:40.689Z,21.76
2022-08-07T23:17:54.644Z,21.67
2022-08-07T23:21:16.702Z,21.57
2022-08-07T23:24:45.517Z,21.46
2022-08-07T23:28:22.014Z,21.47
2022-08-07T23:32:48.939Z,21.38
2022-08-07T23:35:20.043Z,21.39
2022-08-07T23:38:42.772Z,21.27
2022-08-07T23:42:05.107Z,21.24
2022-08-07T23:46:01.582Z,21.20
2022-08-07T23:49:05.353Z,21.21
2022-08-07T23:53:08.845Z,21.10
2022-08-07T23:55:57.351Z,21.13
